sensor_id;sensor_type;location;lat;lon;timestamp;P1;durP1;ratioP1;P2;durP2;ratioP2
14092;SDS011;7123;49.468;10.992;2023-05-07T00:01:17;3.20;;;2.80;;
14092;SDS011;7123;49.468;10.992;2023-05-07T00:03:45;2.77;;;2.57;;
14092;SDS011;7123;49.468;10.992;2023-05-07T00:06:12;4.10;;;2.70;;
14092;SDS011;7123;49.468;10.992;2023-05-07T00:08:40;2.70;;;2.50;;
14092;SDS011;7123;49.468;10.992;2023-05-07T00:11:07;2.77;;;2.57;;
14092;SDS011;7123;49.468;10.992;2023-05-07T00:13:33;3.40;;;2.50;;
14092;SDS011;7123;49.468;10.992;2023-05-07T00:16:02;2.63;;;2.40;;
14092;SDS011;7123;49.468;10.992;2023-05-07T00:18:29;5.60;;;2.50;;
14092;SDS011;7123;49.468;10.992;2023-05-07T00:20:56;3.03;;;2.23;;
14092;SDS011;7123;49.468;10.992;2023-05-07T00:23:23;3.63;;;2.10;;
14092;SDS011;7123;49.468;10.992;2023-05-07T00:25:49;2.30;;;2.13;;
14092;SDS011;7123;49.468;10.992;2023-05-07T00:28:16;2.23;;;2.13;;
14092;SDS011;7123;49.468;10.992;2023-05-07T00:30:43;2.07;;;1.97;;
14092;SDS011;7123;49.468;10.992;2023-05-07T00:33:09;2.23;;;2.07;;
14092;SDS011;7123;49.468;10.992;2023-05-07T00:35:36;3.50;;;1.90;;
14092;SDS011;7123;49.468;10.992;2023-05-07T00:38:03;2.17;;;2.03;;
14092;SDS011;7123;49.468;10.992;2023-05-07T00:40:30;2.27;;;2.00;;
14092;SDS011;7123;49.468;10.992;2023-05-07T00:42:56;2.60;;;2.17;;
14092;SDS011;7123;49.468;10.992;2023-05-07T00:45:27;2.87;;;2.67;;
14092;SDS011;7123;49.468;10.992;2023-05-07T00:47:58;2.37;;;2.20;;
14092;SDS011;7123;49.468;10.992;2023-05-07T00:50:27;2.20;;;2.10;;
14092;SDS011;7123;49.468;10.992;2023-05-07T00:52:54;3.73;;;2.37;;
14092;SDS011;7123;49.468;10.992;2023-05-07T00:55:22;2.20;;;2.00;;
14092;SDS011;7123;49.468;10.992;2023-05-07T00:57:50;2.30;;;2.10;;
14092;SDS011;7123;49.468;10.992;2023-05-07T01:00:17;2.40;;;2.00;;
14092;SDS011;7123;49.468;10.992;2023-05-07T01:02:44;2.40;;;2.20;;
14092;SDS011;7123;49.468;10.992;2023-05-07T01:05:14;2.47;;;1.97;;
14092;SDS011;7123;49.468;10.992;2023-05-07T01:07:43;3.23;;;2.10;;
14092;SDS011;7123;49.468;10.992;2023-05-07T01:10:11;2.03;;;1.93;;
14092;SDS011;7123;49.468;10.992;2023-05-07T01:12:39;2.20;;;2.07;;
14092;SDS011;7123;49.468;10.992;2023-05-07T01:15:07;3.57;;;2.07;;
14092;SDS011;7123;49.468;10.992;2023-05-07T01:17:35;2.47;;;2.27;;
14092;SDS011;7123;49.468;10.992;2023-05-07T01:20:04;2.53;;;2.20;;
14092;SDS011;7123;49.468;10.992;2023-05-07T01:22:32;2.53;;;2.33;;
14092;SDS011;7123;49.468;10.992;2023-05-07T01:25:00;2.30;;;2.10;;
14092;SDS011;7123;49.468;10.992;2023-05-07T01:27:27;4.40;;;2.00;;
14092;SDS011;7123;49.468;10.992;2023-05-07T01:29:54;2.13;;;1.90;;
14092;SDS011;7123;49.468;10.992;2023-05-07T01:32:29;2.23;;;2.03;;
14092;SDS011;7123;49.468;10.992;2023-05-07T01:35:05;6.23;;;2.23;;
14092;SDS011;7123;49.468;10.992;2023-05-07T01:37:33;2.13;;;1.80;;
14092;SDS011;7123;49.468;10.992;2023-05-07T01:40:00;3.10;;;2.13;;
14092;SDS011;7123;49.468;10.992;2023-05-07T01:42:28;2.17;;;1.97;;
14092;SDS011;7123;49.468;10.992;2023-05-07T01:44:55;2.10;;;1.90;;
14092;SDS011;7123;49.468;10.992;2023-05-07T01:47:22;2.50;;;1.83;;
14092;SDS011;7123;49.468;10.992;2023-05-07T01:49:50;2.50;;;2.30;;
14092;SDS011;7123;49.468;10.992;2023-05-07T01:52:16;3.87;;;2.10;;
14092;SDS011;7123;49.468;10.992;2023-05-07T01:54:43;2.30;;;2.10;;
14092;SDS011;7123;49.468;10.992;2023-05-07T01:57:10;2.17;;;1.97;;
14092;SDS011;7123;49.468;10.992;2023-05-07T01:59:37;2.60;;;2.40;;
14092;SDS011;7123;49.468;10.992;2023-05-07T02:02:03;2.30;;;2.20;;
14092;SDS011;7123;49.468;10.992;2023-05-07T02:04:30;4.87;;;2.40;;
14092;SDS011;7123;49.468;10.992;2023-05-07T02:06:57;2.30;;;2.10;;
14092;SDS011;7123;49.468;10.992;2023-05-07T02:09:23;2.27;;;2.07;;
14092;SDS011;7123;49.468;10.992;2023-05-07T02:11:50;2.53;;;2.33;;
14092;SDS011;7123;49.468;10.992;2023-05-07T02:14:17;2.37;;;2.20;;
14092;SDS011;7123;49.468;10.992;2023-05-07T02:16:43;2.40;;;2.20;;
14092;SDS011;7123;49.468;10.992;2023-05-07T02:19:10;2.60;;;2.40;;
14092;SDS011;7123;49.468;10.992;2023-05-07T02:21:37;2.50;;;2.33;;
14092;SDS011;7123;49.468;10.992;2023-05-07T02:24:03;2.10;;;2.00;;
14092;SDS011;7123;49.468;10.992;2023-05-07T02:26:30;2.60;;;2.40;;
14092;SDS011;7123;49.468;10.992;2023-05-07T02:28:57;2.63;;;2.53;;
14092;SDS011;7123;49.468;10.992;2023-05-07T02:31:24;3.30;;;2.40;;
14092;SDS011;7123;49.468;10.992;2023-05-07T02:33:51;2.27;;;2.13;;
14092;SDS011;7123;49.468;10.992;2023-05-07T02:36:17;2.60;;;2.40;;
14092;SDS011;7123;49.468;10.992;2023-05-07T02:38:45;2.40;;;2.30;;
14092;SDS011;7123;49.468;10.992;2023-05-07T02:41:12;2.50;;;2.30;;
14092;SDS011;7123;49.468;10.992;2023-05-07T02:43:38;2.60;;;2.40;;
14092;SDS011;7123;49.468;10.992;2023-05-07T02:46:06;2.77;;;2.50;;
14092;SDS011;7123;49.468;10.992;2023-05-07T02:48:34;2.87;;;2.67;;
14092;SDS011;7123;49.468;10.992;2023-05-07T02:51:01;2.57;;;2.37;;
14092;SDS011;7123;49.468;10.992;2023-05-07T02:53:29;2.43;;;2.33;;
14092;SDS011;7123;49.468;10.992;2023-05-07T02:55:56;3.53;;;2.50;;
14092;SDS011;7123;49.468;10.992;2023-05-07T02:58:24;2.90;;;2.70;;
14092;SDS011;7123;49.468;10.992;2023-05-07T03:00:51;2.83;;;2.43;;
14092;SDS011;7123;49.468;10.992;2023-05-07T03:03:18;3.97;;;3.07;;
14092;SDS011;7123;49.468;10.992;2023-05-07T03:05:45;3.10;;;2.90;;
14092;SDS011;7123;49.468;10.992;2023-05-07T03:08:12;3.10;;;2.90;;
14092;SDS011;7123;49.468;10.992;2023-05-07T03:10:38;3.60;;;3.27;;
14092;SDS011;7123;49.468;10.992;2023-05-07T03:13:05;3.10;;;2.90;;
14092;SDS011;7123;49.468;10.992;2023-05-07T03:15:32;3.00;;;2.60;;
14092;SDS011;7123;49.468;10.992;2023-05-07T03:17:59;3.10;;;2.90;;
14092;SDS011;7123;49.468;10.992;2023-05-07T03:20:25;3.00;;;2.80;;
14092;SDS011;7123;49.468;10.992;2023-05-07T03:22:52;3.80;;;3.30;;
14092;SDS011;7123;49.468;10.992;2023-05-07T03:25:19;3.40;;;3.10;;
14092;SDS011;7123;49.468;10.992;2023-05-07T03:27:45;3.80;;;3.50;;
14092;SDS011;7123;49.468;10.992;2023-05-07T03:30:12;3.87;;;3.40;;
14092;SDS011;7123;49.468;10.992;2023-05-07T03:32:39;3.47;;;3.27;;
14092;SDS011;7123;49.468;10.992;2023-05-07T03:35:06;3.47;;;3.10;;
14092;SDS011;7123;49.468;10.992;2023-05-07T03:37:33;3.73;;;3.37;;
14092;SDS011;7123;49.468;10.992;2023-05-07T03:40:00;3.87;;;3.67;;
14092;SDS011;7123;49.468;10.992;2023-05-07T03:42:27;5.30;;;3.73;;
14092;SDS011;7123;49.468;10.992;2023-05-07T03:44:55;4.97;;;3.30;;
14092;SDS011;7123;49.468;10.992;2023-05-07T03:47:22;3.70;;;3.50;;
14092;SDS011;7123;49.468;10.992;2023-05-07T03:49:48;3.90;;;3.60;;
14092;SDS011;7123;49.468;10.992;2023-05-07T03:52:16;4.13;;;3.63;;
14092;SDS011;7123;49.468;10.992;2023-05-07T03:54:48;3.83;;;3.53;;
14092;SDS011;7123;49.468;10.992;2023-05-07T03:57:15;5.60;;;3.77;;
14092;SDS011;7123;49.468;10.992;2023-05-07T03:59:41;4.33;;;3.93;;
14092;SDS011;7123;49.468;10.992;2023-05-07T04:02:08;4.40;;;4.00;;
14092;SDS011;7123;49.468;10.992;2023-05-07T04:04:35;4.60;;;4.20;;
14092;SDS011;7123;49.468;10.992;2023-05-07T04:07:01;4.40;;;4.00;;
14092;SDS011;7123;49.468;10.992;2023-05-07T04:09:29;5.67;;;4.03;;
14092;SDS011;7123;49.468;10.992;2023-05-07T04:11:55;4.37;;;3.97;;
14092;SDS011;7123;49.468;10.992;2023-05-07T04:14:22;4.80;;;4.00;;
14092;SDS011;7123;49.468;10.992;2023-05-07T04:16:49;4.50;;;3.73;;
14092;SDS011;7123;49.468;10.992;2023-05-07T04:19:15;4.47;;;4.07;;
14092;SDS011;7123;49.468;10.992;2023-05-07T04:21:42;4.00;;;3.70;;
14092;SDS011;7123;49.468;10.992;2023-05-07T04:24:10;4.17;;;3.87;;
14092;SDS011;7123;49.468;10.992;2023-05-07T04:26:37;6.53;;;3.90;;
14092;SDS011;7123;49.468;10.992;2023-05-07T04:29:04;4.03;;;3.80;;
14092;SDS011;7123;49.468;10.992;2023-05-07T04:31:31;4.73;;;4.27;;
14092;SDS011;7123;49.468;10.992;2023-05-07T04:33:58;4.20;;;3.73;;
14092;SDS011;7123;49.468;10.992;2023-05-07T04:36:25;4.67;;;4.27;;
14092;SDS011;7123;49.468;10.992;2023-05-07T04:38:53;4.73;;;4.40;;
14092;SDS011;7123;49.468;10.992;2023-05-07T04:41:20;4.97;;;4.07;;
14092;SDS011;7123;49.468;10.992;2023-05-07T04:43:47;4.43;;;4.03;;
14092;SDS011;7123;49.468;10.992;2023-05-07T04:46:13;4.47;;;4.17;;
14092;SDS011;7123;49.468;10.992;2023-05-07T04:48:40;4.43;;;4.13;;
14092;SDS011;7123;49.468;10.992;2023-05-07T04:51:07;6.07;;;4.63;;
14092;SDS011;7123;49.468;10.992;2023-05-07T04:53:33;4.93;;;4.50;;
14092;SDS011;7123;49.468;10.992;2023-05-07T04:56:00;4.80;;;4.40;;
14092;SDS011;7123;49.468;10.992;2023-05-07T04:58:27;5.20;;;4.80;;
14092;SDS011;7123;49.468;10.992;2023-05-07T05:00:58;4.43;;;4.03;;
14092;SDS011;7123;49.468;10.992;2023-05-07T05:03:25;4.80;;;4.43;;
14092;SDS011;7123;49.468;10.992;2023-05-07T05:05:52;5.23;;;4.70;;
14092;SDS011;7123;49.468;10.992;2023-05-07T05:08:19;4.70;;;4.30;;
14092;SDS011;7123;49.468;10.992;2023-05-07T05:10:45;5.63;;;4.90;;
14092;SDS011;7123;49.468;10.992;2023-05-07T05:13:14;5.43;;;4.90;;
14092;SDS011;7123;49.468;10.992;2023-05-07T05:15:41;5.07;;;4.67;;
14092;SDS011;7123;49.468;10.992;2023-05-07T05:18:08;5.50;;;5.00;;
14092;SDS011;7123;49.468;10.992;2023-05-07T05:20:34;5.93;;;5.40;;
14092;SDS011;7123;49.468;10.992;2023-05-07T05:23:01;6.87;;;5.00;;
14092;SDS011;7123;49.468;10.992;2023-05-07T05:25:28;6.07;;;5.47;;
14092;SDS011;7123;49.468;10.992;2023-05-07T05:27:54;6.20;;;5.30;;
14092;SDS011;7123;49.468;10.992;2023-05-07T05:30:21;5.80;;;5.20;;
14092;SDS011;7123;49.468;10.992;2023-05-07T05:32:48;5.70;;;5.20;;
14092;SDS011;7123;49.468;10.992;2023-05-07T05:35:15;5.73;;;5.23;;
14092;SDS011;7123;49.468;10.992;2023-05-07T05:37:41;6.00;;;5.50;;
14092;SDS011;7123;49.468;10.992;2023-05-07T05:40:08;6.33;;;5.50;;
14092;SDS011;7123;49.468;10.992;2023-05-07T05:42:35;5.67;;;5.20;;
14092;SDS011;7123;49.468;10.992;2023-05-07T05:45:02;5.20;;;4.80;;
14092;SDS011;7123;49.468;10.992;2023-05-07T05:47:29;6.10;;;5.50;;
14092;SDS011;7123;49.468;10.992;2023-05-07T05:49:56;5.83;;;5.33;;
14092;SDS011;7123;49.468;10.992;2023-05-07T05:52:23;5.57;;;5.07;;
14092;SDS011;7123;49.468;10.992;2023-05-07T05:54:53;5.90;;;5.30;;
14092;SDS011;7123;49.468;10.992;2023-05-07T05:57:19;5.53;;;5.13;;
14092;SDS011;7123;49.468;10.992;2023-05-07T05:59:46;6.00;;;5.50;;
14092;SDS011;7123;49.468;10.992;2023-05-07T06:02:13;5.50;;;5.10;;
14092;SDS011;7123;49.468;10.992;2023-05-07T06:04:40;6.30;;;5.80;;
14092;SDS011;7123;49.468;10.992;2023-05-07T06:07:09;6.20;;;5.20;;
14092;SDS011;7123;49.468;10.992;2023-05-07T06:09:35;6.03;;;5.53;;
14092;SDS011;7123;49.468;10.992;2023-05-07T06:12:02;6.20;;;5.63;;
14092;SDS011;7123;49.468;10.992;2023-05-07T06:14:29;7.53;;;5.50;;
14092;SDS011;7123;49.468;10.992;2023-05-07T06:16:56;6.67;;;6.07;;
14092;SDS011;7123;49.468;10.992;2023-05-07T06:19:23;5.93;;;5.40;;
14092;SDS011;7123;49.468;10.992;2023-05-07T06:21:50;6.67;;;6.10;;
14092;SDS011;7123;49.468;10.992;2023-05-07T06:24:16;6.63;;;5.97;;
14092;SDS011;7123;49.468;10.992;2023-05-07T06:26:43;6.23;;;5.63;;
14092;SDS011;7123;49.468;10.992;2023-05-07T06:29:10;6.20;;;5.50;;
14092;SDS011;7123;49.468;10.992;2023-05-07T06:31:37;7.50;;;5.63;;
14092;SDS011;7123;49.468;10.992;2023-05-07T06:34:03;5.73;;;5.33;;
14092;SDS011;7123;49.468;10.992;2023-05-07T06:36:30;5.77;;;5.27;;
14092;SDS011;7123;49.468;10.992;2023-05-07T06:38:57;6.23;;;5.63;;
14092;SDS011;7123;49.468;10.992;2023-05-07T06:41:24;6.23;;;5.73;;
14092;SDS011;7123;49.468;10.992;2023-05-07T06:43:51;8.60;;;5.73;;
14092;SDS011;7123;49.468;10.992;2023-05-07T06:46:18;7.40;;;6.00;;
14092;SDS011;7123;49.468;10.992;2023-05-07T06:48:45;6.03;;;5.53;;
14092;SDS011;7123;49.468;10.992;2023-05-07T06:51:11;9.27;;;6.10;;
14092;SDS011;7123;49.468;10.992;2023-05-07T06:53:38;6.00;;;5.40;;
14092;SDS011;7123;49.468;10.992;2023-05-07T06:56:05;6.27;;;5.67;;
14092;SDS011;7123;49.468;10.992;2023-05-07T06:58:32;6.50;;;6.00;;
14092;SDS011;7123;49.468;10.992;2023-05-07T07:00:59;6.53;;;5.93;;
14092;SDS011;7123;49.468;10.992;2023-05-07T07:03:26;7.53;;;6.67;;
14092;SDS011;7123;49.468;10.992;2023-05-07T07:05:53;6.43;;;5.93;;
14092;SDS011;7123;49.468;10.992;2023-05-07T07:08:21;7.40;;;6.07;;
14092;SDS011;7123;49.468;10.992;2023-05-07T07:10:48;6.50;;;5.90;;
14092;SDS011;7123;49.468;10.992;2023-05-07T07:13:15;7.13;;;6.47;;
14092;SDS011;7123;49.468;10.992;2023-05-07T07:15:42;9.37;;;5.60;;
14092;SDS011;7123;49.468;10.992;2023-05-07T07:18:09;6.43;;;5.83;;
14092;SDS011;7123;49.468;10.992;2023-05-07T07:20:36;6.73;;;5.90;;
14092;SDS011;7123;49.468;10.992;2023-05-07T07:23:03;7.77;;;6.13;;
14092;SDS011;7123;49.468;10.992;2023-05-07T07:25:30;6.40;;;5.90;;
14092;SDS011;7123;49.468;10.992;2023-05-07T07:27:56;6.20;;;5.60;;
14092;SDS011;7123;49.468;10.992;2023-05-07T07:30:26;7.17;;;5.87;;
14092;SDS011;7123;49.468;10.992;2023-05-07T07:32:53;7.07;;;6.37;;
14092;SDS011;7123;49.468;10.992;2023-05-07T07:35:20;6.47;;;5.87;;
14092;SDS011;7123;49.468;10.992;2023-05-07T07:37:47;6.83;;;6.23;;
14092;SDS011;7123;49.468;10.992;2023-05-07T07:40:15;6.10;;;5.60;;
14092;SDS011;7123;49.468;10.992;2023-05-07T07:42:42;6.40;;;5.80;;
14092;SDS011;7123;49.468;10.992;2023-05-07T07:45:09;7.13;;;6.03;;
14092;SDS011;7123;49.468;10.992;2023-05-07T07:47:36;6.70;;;6.00;;
14092;SDS011;7123;49.468;10.992;2023-05-07T07:50:03;7.13;;;5.70;;
14092;SDS011;7123;49.468;10.992;2023-05-07T07:52:30;9.57;;;6.27;;
14092;SDS011;7123;49.468;10.992;2023-05-07T07:54:57;6.03;;;5.50;;
14092;SDS011;7123;49.468;10.992;2023-05-07T07:57:23;6.57;;;5.57;;
14092;SDS011;7123;49.468;10.992;2023-05-07T07:59:50;5.50;;;5.10;;
14092;SDS011;7123;49.468;10.992;2023-05-07T08:02:17;6.10;;;5.60;;
14092;SDS011;7123;49.468;10.992;2023-05-07T08:04:45;6.13;;;5.63;;
14092;SDS011;7123;49.468;10.992;2023-05-07T08:07:12;6.27;;;5.70;;
14092;SDS011;7123;49.468;10.992;2023-05-07T08:09:39;5.97;;;5.47;;
14092;SDS011;7123;49.468;10.992;2023-05-07T08:12:07;6.63;;;5.63;;
14092;SDS011;7123;49.468;10.992;2023-05-07T08:14:34;5.80;;;5.30;;
14092;SDS011;7123;49.468;10.992;2023-05-07T08:17:02;6.27;;;5.77;;
14092;SDS011;7123;49.468;10.992;2023-05-07T08:19:29;5.40;;;5.00;;
14092;SDS011;7123;49.468;10.992;2023-05-07T08:21:56;6.30;;;5.20;;
14092;SDS011;7123;49.468;10.992;2023-05-07T08:24:22;5.90;;;5.30;;
14092;SDS011;7123;49.468;10.992;2023-05-07T08:26:49;5.83;;;4.90;;
14092;SDS011;7123;49.468;10.992;2023-05-07T08:29:16;5.90;;;5.30;;
14092;SDS011;7123;49.468;10.992;2023-05-07T08:31:42;6.40;;;5.60;;
14092;SDS011;7123;49.468;10.992;2023-05-07T08:34:09;5.50;;;5.00;;
14092;SDS011;7123;49.468;10.992;2023-05-07T08:36:36;5.60;;;5.10;;
14092;SDS011;7123;49.468;10.992;2023-05-07T08:39:02;6.20;;;5.60;;
14092;SDS011;7123;49.468;10.992;2023-05-07T08:41:29;5.60;;;5.10;;
14092;SDS011;7123;49.468;10.992;2023-05-07T08:43:57;5.23;;;4.73;;
14092;SDS011;7123;49.468;10.992;2023-05-07T08:46:26;5.37;;;4.80;;
14092;SDS011;7123;49.468;10.992;2023-05-07T08:48:58;6.10;;;4.90;;
14092;SDS011;7123;49.468;10.992;2023-05-07T08:51:25;6.93;;;5.13;;
14092;SDS011;7123;49.468;10.992;2023-05-07T08:53:51;5.50;;;5.00;;
14092;SDS011;7123;49.468;10.992;2023-05-07T08:56:18;8.37;;;4.87;;
14092;SDS011;7123;49.468;10.992;2023-05-07T08:58:47;6.17;;;5.13;;
14092;SDS011;7123;49.468;10.992;2023-05-07T09:01:15;5.27;;;4.77;;
14092;SDS011;7123;49.468;10.992;2023-05-07T09:03:44;5.77;;;5.27;;
14092;SDS011;7123;49.468;10.992;2023-05-07T09:06:11;5.27;;;4.90;;
14092;SDS011;7123;49.468;10.992;2023-05-07T09:08:38;6.10;;;4.90;;
14092;SDS011;7123;49.468;10.992;2023-05-07T09:11:05;5.70;;;5.17;;
14092;SDS011;7123;49.468;10.992;2023-05-07T09:13:31;5.43;;;5.00;;
14092;SDS011;7123;49.468;10.992;2023-05-07T09:15:58;5.73;;;5.00;;
14092;SDS011;7123;49.468;10.992;2023-05-07T09:18:40;5.83;;;4.80;;
14092;SDS011;7123;49.468;10.992;2023-05-07T09:21:09;5.30;;;4.80;;
14092;SDS011;7123;49.468;10.992;2023-05-07T09:23:37;5.33;;;4.83;;
14092;SDS011;7123;49.468;10.992;2023-05-07T09:26:05;5.20;;;4.80;;
14092;SDS011;7123;49.468;10.992;2023-05-07T09:28:38;5.17;;;4.67;;
14092;SDS011;7123;49.468;10.992;2023-05-07T09:31:06;5.63;;;4.73;;
14092;SDS011;7123;49.468;10.992;2023-05-07T09:33:34;4.90;;;4.50;;
14092;SDS011;7123;49.468;10.992;2023-05-07T09:36:05;5.67;;;5.17;;
14092;SDS011;7123;49.468;10.992;2023-05-07T09:38:33;4.90;;;4.50;;
14092;SDS011;7123;49.468;10.992;2023-05-07T09:41:01;5.10;;;4.63;;
14092;SDS011;7123;49.468;10.992;2023-05-07T09:43:32;4.93;;;4.53;;
14092;SDS011;7123;49.468;10.992;2023-05-07T09:46:02;5.33;;;4.23;;
14092;SDS011;7123;49.468;10.992;2023-05-07T09:48:32;6.97;;;4.50;;
14092;SDS011;7123;49.468;10.992;2023-05-07T09:51:06;5.40;;;5.00;;
14092;SDS011;7123;49.468;10.992;2023-05-07T09:53:44;5.13;;;4.60;;
14092;SDS011;7123;49.468;10.992;2023-05-07T09:56:13;5.37;;;4.70;;
14092;SDS011;7123;49.468;10.992;2023-05-07T09:58:41;5.00;;;4.50;;
14092;SDS011;7123;49.468;10.992;2023-05-07T10:01:10;5.10;;;4.70;;
14092;SDS011;7123;49.468;10.992;2023-05-07T10:03:41;5.13;;;4.63;;
14092;SDS011;7123;49.468;10.992;2023-05-07T10:06:09;4.77;;;4.00;;
14092;SDS011;7123;49.468;10.992;2023-05-07T10:08:37;5.03;;;4.63;;
14092;SDS011;7123;49.468;10.992;2023-05-07T10:11:04;4.67;;;4.27;;
14092;SDS011;7123;49.468;10.992;2023-05-07T10:13:35;5.27;;;4.77;;
14092;SDS011;7123;49.468;10.992;2023-05-07T10:16:04;5.87;;;4.50;;
14092;SDS011;7123;49.468;10.992;2023-05-07T10:18:31;4.70;;;4.40;;
14092;SDS011;7123;49.468;10.992;2023-05-07T10:21:15;4.60;;;4.30;;
14092;SDS011;7123;49.468;10.992;2023-05-07T10:23:56;5.20;;;4.00;;
14092;SDS011;7123;49.468;10.992;2023-05-07T10:26:27;4.67;;;4.27;;
14092;SDS011;7123;49.468;10.992;2023-05-07T10:28:58;4.53;;;4.13;;
14092;SDS011;7123;49.468;10.992;2023-05-07T10:34:23;4.40;;;4.10;;
14092;SDS011;7123;49.468;10.992;2023-05-07T10:36:54;4.70;;;4.30;;
14092;SDS011;7123;49.468;10.992;2023-05-07T10:39:22;5.00;;;4.53;;
14092;SDS011;7123;49.468;10.992;2023-05-07T10:41:49;4.40;;;4.10;;
14092;SDS011;7123;49.468;10.992;2023-05-07T10:44:34;4.70;;;4.30;;
14092;SDS011;7123;49.468;10.992;2023-05-07T10:47:09;4.67;;;4.07;;
14092;SDS011;7123;49.468;10.992;2023-05-07T10:54:44;4.17;;;3.87;;
14092;SDS011;7123;49.468;10.992;2023-05-07T10:59:57;4.57;;;4.00;;
14092;SDS011;7123;49.468;10.992;2023-05-07T11:02:45;3.80;;;3.60;;
14092;SDS011;7123;49.468;10.992;2023-05-07T11:05:31;3.60;;;3.40;;
14092;SDS011;7123;49.468;10.992;2023-05-07T11:08:03;4.27;;;3.87;;
14092;SDS011;7123;49.468;10.992;2023-05-07T11:13:18;4.20;;;3.80;;
14092;SDS011;7123;49.468;10.992;2023-05-07T11:16:05;4.20;;;3.90;;
14092;SDS011;7123;49.468;10.992;2023-05-07T11:18:56;3.60;;;3.40;;
14092;SDS011;7123;49.468;10.992;2023-05-07T11:21:32;3.67;;;3.40;;
14092;SDS011;7123;49.468;10.992;2023-05-07T11:24:03;3.80;;;3.47;;
14092;SDS011;7123;49.468;10.992;2023-05-07T11:26:41;3.33;;;3.13;;
14092;SDS011;7123;49.468;10.992;2023-05-07T11:29:16;3.73;;;3.37;;
14092;SDS011;7123;49.468;10.992;2023-05-07T11:31:48;3.00;;;2.80;;
14092;SDS011;7123;49.468;10.992;2023-05-07T11:34:22;4.07;;;3.17;;
14092;SDS011;7123;49.468;10.992;2023-05-07T11:36:51;3.47;;;3.20;;
14092;SDS011;7123;49.468;10.992;2023-05-07T11:39:25;3.10;;;2.90;;
14092;SDS011;7123;49.468;10.992;2023-05-07T11:42:02;6.07;;;3.43;;
14092;SDS011;7123;49.468;10.992;2023-05-07T11:44:42;3.17;;;2.97;;
14092;SDS011;7123;49.468;10.992;2023-05-07T11:47:21;3.40;;;3.10;;
14092;SDS011;7123;49.468;10.992;2023-05-07T11:49:48;3.97;;;3.60;;
14092;SDS011;7123;49.468;10.992;2023-05-07T11:52:17;3.77;;;3.40;;
14092;SDS011;7123;49.468;10.992;2023-05-07T11:55:03;4.03;;;3.23;;
14092;SDS011;7123;49.468;10.992;2023-05-07T11:57:32;3.53;;;3.33;;
14092;SDS011;7123;49.468;10.992;2023-05-07T12:00:00;3.58;;;3.28;;
14092;SDS011;7123;49.468;10.992;2023-05-07T12:02:30;3.47;;;2.83;;
14092;SDS011;7123;49.468;10.992;2023-05-07T12:04:57;3.80;;;3.13;;
14092;SDS011;7123;49.468;10.992;2023-05-07T12:07:26;2.83;;;2.67;;
14092;SDS011;7123;49.468;10.992;2023-05-07T12:09:53;4.93;;;2.63;;
14092;SDS011;7123;49.468;10.992;2023-05-07T12:12:20;3.47;;;2.90;;
14092;SDS011;7123;49.468;10.992;2023-05-07T12:14:47;3.03;;;2.83;;
14092;SDS011;7123;49.468;10.992;2023-05-07T12:17:14;3.00;;;2.80;;
14092;SDS011;7123;49.468;10.992;2023-05-07T12:19:43;3.10;;;2.50;;
14092;SDS011;7123;49.468;10.992;2023-05-07T12:22:11;3.67;;;2.83;;
14092;SDS011;7123;49.468;10.992;2023-05-07T12:24:44;3.73;;;2.80;;
14092;SDS011;7123;49.468;10.992;2023-05-07T12:27:25;2.50;;;2.30;;
14092;SDS011;7123;49.468;10.992;2023-05-07T12:29:52;2.83;;;2.70;;
14092;SDS011;7123;49.468;10.992;2023-05-07T12:32:19;5.00;;;2.60;;
14092;SDS011;7123;49.468;10.992;2023-05-07T12:34:50;3.00;;;2.80;;
14092;SDS011;7123;49.468;10.992;2023-05-07T12:37:22;3.50;;;3.20;;
14092;SDS011;7123;49.468;10.992;2023-05-07T12:40:02;2.88;;;2.78;;
14092;SDS011;7123;49.468;10.992;2023-05-07T12:42:37;3.33;;;3.00;;
14092;SDS011;7123;49.468;10.992;2023-05-07T12:45:08;3.87;;;3.57;;
14092;SDS011;7123;49.468;10.992;2023-05-07T12:47:36;4.53;;;3.47;;
14092;SDS011;7123;49.468;10.992;2023-05-07T12:50:06;3.70;;;3.40;;
14092;SDS011;7123;49.468;10.992;2023-05-07T12:52:34;3.63;;;3.33;;
14092;SDS011;7123;49.468;10.992;2023-05-07T12:55:07;3.30;;;3.10;;
14092;SDS011;7123;49.468;10.992;2023-05-07T12:57:43;3.93;;;3.57;;
14092;SDS011;7123;49.468;10.992;2023-05-07T13:00:14;3.97;;;3.67;;
14092;SDS011;7123;49.468;10.992;2023-05-07T13:02:42;3.80;;;3.50;;
14092;SDS011;7123;49.468;10.992;2023-05-07T13:05:10;3.90;;;3.60;;
14092;SDS011;7123;49.468;10.992;2023-05-07T13:07:37;4.10;;;3.80;;
14092;SDS011;7123;49.468;10.992;2023-05-07T13:10:05;3.93;;;3.53;;
14092;SDS011;7123;49.468;10.992;2023-05-07T13:12:32;3.80;;;3.50;;
14092;SDS011;7123;49.468;10.992;2023-05-07T13:14:59;3.83;;;3.47;;
14092;SDS011;7123;49.468;10.992;2023-05-07T13:17:26;3.53;;;3.20;;
14092;SDS011;7123;49.468;10.992;2023-05-07T13:19:53;3.37;;;3.17;;
14092;SDS011;7123;49.468;10.992;2023-05-07T13:22:19;3.60;;;3.20;;
14092;SDS011;7123;49.468;10.992;2023-05-07T13:24:46;3.17;;;2.90;;
14092;SDS011;7123;49.468;10.992;2023-05-07T13:27:13;3.13;;;2.90;;
14092;SDS011;7123;49.468;10.992;2023-05-07T13:29:39;5.13;;;3.23;;
14092;SDS011;7123;49.468;10.992;2023-05-07T13:32:06;3.97;;;2.90;;
14092;SDS011;7123;49.468;10.992;2023-05-07T13:34:33;3.33;;;3.13;;
14092;SDS011;7123;49.468;10.992;2023-05-07T13:37:00;3.00;;;2.80;;
14092;SDS011;7123;49.468;10.992;2023-05-07T13:39:27;3.80;;;3.50;;
14092;SDS011;7123;49.468;10.992;2023-05-07T13:41:53;5.00;;;3.50;;
14092;SDS011;7123;49.468;10.992;2023-05-07T13:44:20;3.50;;;3.30;;
14092;SDS011;7123;49.468;10.992;2023-05-07T13:46:47;3.43;;;3.17;;
14092;SDS011;7123;49.468;10.992;2023-05-07T13:49:13;3.33;;;3.07;;
14092;SDS011;7123;49.468;10.992;2023-05-07T13:51:40;3.20;;;2.97;;
14092;SDS011;7123;49.468;10.992;2023-05-07T13:54:07;3.05;;;2.88;;
14092;SDS011;7123;49.468;10.992;2023-05-07T13:56:33;5.80;;;3.53;;
14092;SDS011;7123;49.468;10.992;2023-05-07T13:59:01;3.30;;;3.00;;
14092;SDS011;7123;49.468;10.992;2023-05-07T14:01:28;3.50;;;3.20;;
14092;SDS011;7123;49.468;10.992;2023-05-07T14:03:55;3.08;;;2.78;;
14092;SDS011;7123;49.468;10.992;2023-05-07T14:06:24;3.20;;;2.95;;
14092;SDS011;7123;49.468;10.992;2023-05-07T14:08:51;3.38;;;3.17;;
14092;SDS011;7123;49.468;10.992;2023-05-07T14:11:17;3.27;;;3.00;;
14092;SDS011;7123;49.468;10.992;2023-05-07T14:13:44;3.00;;;2.80;;
14092;SDS011;7123;49.468;10.992;2023-05-07T14:16:11;3.27;;;3.00;;
14092;SDS011;7123;49.468;10.992;2023-05-07T14:18:38;3.35;;;3.05;;
14092;SDS011;7123;49.468;10.992;2023-05-07T14:21:05;5.20;;;3.00;;
14092;SDS011;7123;49.468;10.992;2023-05-07T14:23:35;3.17;;;2.97;;
14092;SDS011;7123;49.468;10.992;2023-05-07T14:26:02;3.35;;;3.15;;
14092;SDS011;7123;49.468;10.992;2023-05-07T14:28:29;3.03;;;2.83;;
14092;SDS011;7123;49.468;10.992;2023-05-07T14:30:55;4.55;;;2.90;;
14092;SDS011;7123;49.468;10.992;2023-05-07T14:33:22;3.70;;;2.90;;
14092;SDS011;7123;49.468;10.992;2023-05-07T14:35:49;3.17;;;2.97;;
14092;SDS011;7123;49.468;10.992;2023-05-07T14:38:16;3.65;;;3.20;;
14092;SDS011;7123;49.468;10.992;2023-05-07T14:40:42;3.20;;;2.90;;
14092;SDS011;7123;49.468;10.992;2023-05-07T14:43:09;3.10;;;2.90;;
14092;SDS011;7123;49.468;10.992;2023-05-07T14:45:36;3.30;;;3.10;;
14092;SDS011;7123;49.468;10.992;2023-05-07T14:48:03;3.70;;;3.40;;
14092;SDS011;7123;49.468;10.992;2023-05-07T14:50:32;4.78;;;3.38;;
14092;SDS011;7123;49.468;10.992;2023-05-07T14:52:59;3.78;;;3.50;;
14092;SDS011;7123;49.468;10.992;2023-05-07T14:55:25;3.38;;;3.15;;
14092;SDS011;7123;49.468;10.992;2023-05-07T14:57:52;3.60;;;3.30;;
14092;SDS011;7123;49.468;10.992;2023-05-07T15:00:19;4.13;;;3.83;;
14092;SDS011;7123;49.468;10.992;2023-05-07T15:02:46;3.35;;;3.15;;
14092;SDS011;7123;49.468;10.992;2023-05-07T15:05:13;3.45;;;3.25;;
14092;SDS011;7123;49.468;10.992;2023-05-07T15:07:40;3.60;;;3.40;;